createdAt,value
2018-02-21T00:00:27.251Z,61.10
2018-02-21T00:01:27.237Z,59.70
2018-02-21T00:02:27.225Z,61.50
2018-02-21T00:03:27.214Z,57.70
2018-02-21T00:04:27.197Z,60.60
2018-02-21T00:05:27.184Z,59.40
2018-02-21T00:06:27.173Z,60.30
2018-02-21T00:07:27.161Z,61.90
2018-02-21T00:08:27.148Z,61.20
2018-02-21T00:09:27.136Z,62.60
2018-02-21T00:10:27.124Z,61.60
2018-02-21T00:11:27.112Z,61.20
2018-02-21T00:12:27.101Z,60.90
2018-02-21T00:13:27.089Z,61.20
2018-02-21T00:14:27.077Z,61.60
2018-02-21T00:15:27.065Z,61.90
2018-02-21T00:16:27.053Z,61.70
2018-02-21T00:17:27.041Z,64.00
2018-02-21T00:18:27.030Z,59.40
2018-02-21T00:19:27.015Z,63.10
2018-02-21T00:20:27.002Z,62.60
2018-02-21T00:21:26.990Z,62.70
2018-02-21T00:22:26.975Z,61.00
2018-02-21T00:23:26.963Z,62.80
2018-02-21T00:24:26.949Z,60.90
2018-02-21T00:25:26.936Z,63.70
2018-02-21T00:26:26.927Z,63.80
2018-02-21T00:27:26.914Z,62.30
2018-02-21T00:28:26.903Z,64.90
2018-02-21T00:29:26.890Z,62.90
2018-02-21T00:30:26.879Z,61.60
2018-02-21T00:31:26.866Z,61.20
2018-02-21T00:32:26.852Z,62.80
2018-02-21T00:33:26.840Z,63.80
2018-02-21T00:34:26.828Z,62.60
2018-02-21T00:35:26.817Z,59.90
2018-02-21T00:36:26.801Z,61.10
2018-02-21T00:37:26.788Z,62.20
2018-02-21T00:38:26.774Z,61.80
2018-02-21T00:39:26.763Z,60.60
2018-02-21T00:40:26.749Z,62.40
2018-02-21T00:41:26.738Z,63.30
2018-02-21T00:42:26.726Z,62.00
2018-02-21T00:43:26.712Z,60.00
2018-02-21T00:44:26.701Z,61.60
2018-02-21T00:45:26.689Z,61.10
2018-02-21T00:46:26.680Z,62.10
2018-02-21T00:47:26.665Z,61.40
2018-02-21T00:48:26.653Z,60.60
2018-02-21T00:49:26.636Z,63.40
2018-02-21T00:50:26.624Z,62.40
2018-02-21T00:51:26.611Z,63.70
2018-02-21T00:52:26.600Z,62.20
2018-02-21T00:53:26.587Z,63.60
2018-02-21T00:54:26.576Z,61.40
2018-02-21T00:55:26.563Z,62.10
2018-02-21T00:56:26.550Z,61.20
2018-02-21T00:57:26.537Z,63.50
2018-02-21T00:58:26.525Z,63.90
2018-02-21T00:59:26.512Z,63.70
2018-02-21T01:00:26.496Z,63.70
2018-02-21T01:01:26.483Z,63.00
2018-02-21T01:02:26.471Z,62.90
2018-02-21T01:03:26.458Z,61.70
2018-02-21T01:04:26.446Z,61.40
2018-02-21T01:05:26.432Z,63.30
2018-02-21T01:06:26.420Z,63.20
2018-02-21T01:07:26.407Z,60.30
2018-02-21T01:08:26.397Z,62.50
2018-02-21T01:09:26.384Z,62.10
2018-02-21T01:10:26.372Z,63.30
2018-02-21T01:11:26.360Z,63.50
2018-02-21T01:12:26.346Z,63.30
2018-02-21T01:13:26.333Z,63.10
2018-02-21T01:14:26.321Z,63.30
2018-02-21T01:15:26.309Z,62.80
2018-02-21T01:16:26.290Z,63.30
2018-02-21T01:17:26.279Z,62.70
2018-02-21T01:18:26.266Z,63.90
2018-02-21T01:19:26.253Z,63.30
2018-02-21T01:20:26.242Z,64.80
2018-02-21T01:21:26.228Z,63.10
2018-02-21T01:22:26.214Z,63.50
2018-02-21T01:23:26.204Z,62.60
2018-02-21T01:24:26.192Z,63.00
2018-02-21T01:25:26.179Z,62.50
2018-02-21T01:26:26.167Z,65.50
2018-02-21T01:27:26.153Z,61.90
2018-02-21T01:28:26.141Z,65.20
2018-02-21T01:29:26.131Z,61.60
2018-02-21T01:30:26.114Z,64.60
2018-02-21T01:31:26.103Z,64.80
2018-02-21T01:32:26.087Z,64.80
2018-02-21T01:33:26.073Z,64.40
2018-02-21T01:34:26.061Z,63.80
2018-02-21T01:35:26.049Z,62.00
2018-02-21T01:36:26.035Z,65.30
2018-02-21T01:37:26.026Z,63.90
2018-02-21T01:38:26.010Z,66.50
2018-02-21T01:39:25.998Z,63.70
2018-02-21T01:40:25.987Z,63.70
2018-02-21T01:41:25.975Z,63.50
2018-02-21T01:42:25.960Z,62.90
2018-02-21T01:43:25.948Z,64.60
2018-02-21T01:44:25.934Z,66.70
2018-02-21T01:45:25.922Z,65.00
2018-02-21T01:46:25.910Z,63.70
2018-02-21T01:47:25.897Z,65.60
2018-02-21T01:48:25.880Z,64.50
2018-02-21T01:49:25.868Z,62.90
2018-02-21T01:50:25.855Z,63.60
2018-02-21T01:51:25.843Z,64.00
2018-02-21T01:52:25.833Z,63.50
2018-02-21T01:53:25.820Z,62.80
2018-02-21T01:54:25.808Z,63.50
2018-02-21T01:55:25.796Z,62.20
2018-02-21T01:56:25.779Z,63.10
2018-02-21T01:57:25.765Z,65.90
2018-02-21T01:58:25.754Z,60.20
2018-02-21T01:59:25.741Z,63.50
2018-02-21T02:00:25.727Z,64.30
2018-02-21T02:01:25.714Z,64.00
2018-02-21T02:02:25.702Z,64.20
2018-02-21T02:03:25.688Z,62.50
2018-02-21T02:04:25.682Z,61.00
2018-02-21T02:05:25.666Z,60.90
2018-02-21T02:06:25.655Z,64.40
2018-02-21T02:07:25.640Z,60.90
2018-02-21T02:08:25.626Z,61.40
2018-02-21T02:09:25.615Z,62.10
2018-02-21T02:10:25.601Z,62.00
2018-02-21T02:11:25.591Z,62.90
2018-02-21T02:12:25.572Z,63.60
2018-02-21T02:13:25.559Z,63.70
2018-02-21T02:14:25.547Z,66.80
2018-02-21T02:15:25.535Z,66.00
2018-02-21T02:16:25.521Z,64.90
2018-02-21T02:17:25.509Z,65.30
2018-02-21T02:18:25.494Z,63.20
2018-02-21T02:19:25.486Z,65.60
2018-02-21T02:20:25.471Z,64.90
2018-02-21T02:21:25.460Z,63.40
2018-02-21T02:22:25.448Z,65.40
2018-02-21T02:23:25.437Z,63.10
2018-02-21T02:24:25.422Z,64.70
2018-02-21T02:25:25.407Z,65.50
2018-02-21T02:26:25.396Z,60.20
2018-02-21T02:27:25.381Z,63.10
2018-02-21T02:28:25.366Z,61.10
2018-02-21T02:29:25.354Z,60.90
2018-02-21T02:30:25.341Z,61.60
2018-02-21T02:31:25.330Z,62.80
2018-02-21T02:32:25.317Z,62.80
2018-02-21T02:33:25.301Z,61.30
2018-02-21T02:34:25.290Z,61.50
2018-02-21T02:35:25.276Z,60.60
2018-02-21T02:36:25.266Z,66.10
2018-02-21T02:37:25.252Z,61.30
2018-02-21T02:38:25.240Z,62.80
2018-02-21T02:39:25.230Z,64.20
2018-02-21T02:40:25.215Z,60.80
2018-02-21T02:41:25.202Z,65.10
2018-02-21T02:42:25.188Z,64.60
2018-02-21T02:43:25.176Z,63.30
2018-02-21T02:44:25.159Z,64.60
2018-02-21T02:45:25.146Z,62.70
2018-02-21T02:46:25.132Z,61.60
2018-02-21T02:47:25.120Z,63.20
2018-02-21T02:48:25.107Z,63.30
2018-02-21T02:49:25.093Z,64.80
2018-02-21T02:50:25.083Z,61.70
2018-02-21T02:51:25.068Z,65.50
2018-02-21T02:52:25.060Z,64.00
2018-02-21T02:53:25.045Z,63.30
2018-02-21T02:54:25.033Z,62.00
2018-02-21T02:55:25.019Z,62.30
2018-02-21T02:56:25.005Z,62.90
2018-02-21T02:57:24.996Z,64.30
2018-02-21T02:58:24.980Z,68.60
2018-02-21T02:59:24.967Z,63.80
2018-02-21T03:00:24.951Z,63.80
2018-02-21T03:01:24.938Z,66.50
2018-02-21T03:02:24.929Z,62.50
2018-02-21T03:03:24.913Z,65.60
2018-02-21T03:04:24.900Z,64.60
2018-02-21T03:05:24.892Z,66.20
2018-02-21T03:06:24.872Z,66.00
2018-02-21T03:07:24.860Z,63.20
2018-02-21T03:08:24.849Z,63.20
2018-02-21T03:09:24.836Z,65.20
2018-02-21T03:10:24.824Z,66.50
2018-02-21T03:11:24.810Z,65.70
2018-02-21T03:12:24.796Z,63.90
2018-02-21T03:13:24.786Z,66.50
2018-02-21T03:14:24.771Z,63.30
2018-02-21T03:15:24.759Z,65.90
2018-02-21T03:16:24.742Z,65.20
2018-02-21T03:17:24.729Z,65.50
2018-02-21T03:18:24.718Z,62.30
2018-02-21T03:19:24.704Z,62.60
2018-02-21T03:20:24.690Z,62.70
2018-02-21T03:21:24.677Z,64.10
2018-02-21T03:22:24.664Z,63.00
2018-02-21T03:23:24.652Z,64.00
2018-02-21T03:24:24.646Z,62.00
2018-02-21T03:25:24.629Z,62.60
2018-02-21T03:26:24.617Z,61.90
2018-02-21T03:27:24.604Z,63.10
2018-02-21T03:28:24.589Z,63.30
2018-02-21T03:29:24.578Z,63.00
2018-02-21T03:30:24.566Z,61.50
2018-02-21T03:31:24.553Z,65.20
2018-02-21T03:32:24.539Z,62.40
2018-02-21T03:33:24.523Z,64.00
2018-02-21T03:34:24.514Z,63.40
2018-02-21T03:35:24.497Z,60.30
2018-02-21T03:36:24.484Z,64.20
2018-02-21T03:37:24.472Z,64.10
2018-02-21T03:38:24.460Z,62.60
2018-02-21T03:39:24.447Z,64.50
2018-02-21T03:40:24.437Z,64.00
2018-02-21T03:41:24.424Z,64.70
2018-02-21T03:42:24.412Z,65.20
2018-02-21T03:43:24.400Z,65.30
2018-02-21T03:44:24.387Z,63.30
2018-02-21T03:45:24.373Z,62.60
2018-02-21T03:46:24.362Z,66.00
2018-02-21T03:47:24.349Z,62.70
2018-02-21T03:48:24.333Z,65.40
2018-02-21T03:49:24.320Z,66.10
2018-02-21T03:50:24.312Z,64.40
2018-02-21T03:51:24.296Z,64.10
2018-02-21T03:52:24.282Z,65.80
2018-02-21T03:53:24.270Z,64.50
2018-02-21T03:54:24.257Z,66.30
2018-02-21T03:55:24.245Z,64.80
2018-02-21T03:56:24.234Z,63.40
2018-02-21T03:57:24.223Z,65.30
2018-02-21T03:58:24.210Z,66.60
2018-02-21T03:59:24.197Z,66.00
2018-02-21T04:00:24.182Z,65.30
2018-02-21T04:01:24.169Z,64.70
2018-02-21T04:02:24.158Z,60.80
2018-02-21T04:03:24.148Z,64.90
2018-02-21T04:04:24.134Z,63.50
2018-02-21T04:05:24.123Z,65.30
2018-02-21T04:06:24.110Z,64.70
2018-02-21T04:07:24.098Z,65.20
2018-02-21T04:08:24.084Z,69.40
2018-02-21T04:09:24.072Z,66.40
2018-02-21T04:10:24.060Z,65.60
2018-02-21T04:11:24.049Z,66.60
2018-02-21T04:12:24.031Z,66.60
2018-02-21T04:13:24.019Z,66.30
2018-02-21T04:14:24.007Z,65.50
2018-02-21T04:15:23.997Z,66.20
2018-02-21T04:16:23.981Z,66.20
2018-02-21T04:17:23.970Z,65.50
2018-02-21T04:18:23.958Z,68.10
2018-02-21T04:19:23.945Z,63.80
2018-02-21T04:20:23.935Z,63.20
2018-02-21T04:21:23.923Z,66.20
2018-02-21T04:22:23.912Z,66.00
2018-02-21T04:23:23.898Z,65.80
2018-02-21T04:24:23.887Z,64.80
2018-02-21T04:25:23.873Z,64.20
2018-02-21T04:26:23.862Z,64.60
2018-02-21T04:27:23.849Z,65.30
2018-02-21T04:28:23.834Z,67.60
2018-02-21T04:29:23.823Z,66.00
2018-02-21T04:30:23.810Z,66.10
2018-02-21T04:31:23.800Z,66.50
2018-02-21T04:32:23.785Z,66.20
2018-02-21T04:33:23.773Z,69.20
2018-02-21T04:34:23.763Z,67.70
2018-02-21T04:35:23.749Z,66.80
2018-02-21T04:36:23.739Z,65.60
2018-02-21T04:37:23.728Z,67.40
2018-02-21T04:38:23.716Z,65.20
2018-02-21T04:39:23.703Z,67.40
2018-02-21T04:40:23.690Z,66.90
2018-02-21T04:41:23.679Z,66.20
2018-02-21T04:42:23.667Z,66.20
2018-02-21T04:43:23.656Z,66.90
2018-02-21T04:44:23.639Z,66.00
2018-02-21T04:45:23.626Z,68.60
2018-02-21T04:46:23.616Z,65.70
2018-02-21T04:47:23.605Z,65.10
2018-02-21T04:48:23.591Z,67.40
2018-02-21T04:49:23.610Z,65.80
2018-02-21T04:50:23.567Z,68.20
2018-02-21T04:51:23.555Z,64.30
2018-02-21T04:52:23.546Z,67.60
2018-02-21T04:53:23.534Z,65.00
2018-02-21T04:54:23.521Z,69.40
2018-02-21T04:55:23.509Z,69.30
2018-02-21T04:56:23.497Z,64.20
2018-02-21T04:57:23.488Z,68.90
2018-02-21T04:58:23.473Z,65.00
2018-02-21T04:59:23.463Z,69.40
2018-02-21T05:00:23.449Z,66.90
2018-02-21T05:01:23.434Z,66.70
2018-02-21T05:02:23.422Z,69.00
2018-02-21T05:03:23.410Z,67.60
2018-02-21T05:04:23.400Z,63.50
2018-02-21T05:05:23.388Z,68.20
2018-02-21T05:06:23.376Z,66.40
2018-02-21T05:07:23.364Z,66.80
2018-02-21T05:08:23.349Z,66.80
2018-02-21T05:09:23.337Z,67.30
2018-02-21T05:10:23.324Z,67.90
2018-02-21T05:11:23.317Z,68.00
2018-02-21T05:12:23.298Z,67.60
2018-02-21T05:13:23.288Z,69.90
2018-02-21T05:14:23.276Z,68.30
2018-02-21T05:15:23.264Z,65.60
2018-02-21T05:16:23.255Z,66.10
2018-02-21T05:17:23.243Z,68.00
2018-02-21T05:18:23.230Z,67.70
2018-02-21T05:19:23.218Z,66.50
2018-02-21T05:20:23.206Z,68.50
2018-02-21T05:21:23.196Z,69.80
2018-02-21T05:22:23.181Z,64.80
2018-02-21T05:23:23.171Z,67.80
2018-02-21T05:24:23.154Z,68.50
2018-02-21T05:25:23.143Z,68.00
2018-02-21T05:26:23.184Z,69.10
2018-02-21T05:27:23.119Z,67.50
2018-02-21T05:28:23.107Z,71.00
2018-02-21T05:29:23.095Z,67.90
2018-02-21T05:30:23.084Z,68.00
2018-02-21T05:31:23.072Z,69.30
2018-02-21T05:32:23.064Z,68.40
2018-02-21T05:33:23.049Z,67.40
2018-02-21T05:34:23.037Z,67.90
2018-02-21T05:35:23.026Z,67.80
2018-02-21T05:36:23.014Z,69.20
2018-02-21T05:37:23.001Z,67.30
2018-02-21T05:38:22.990Z,70.00
2018-02-21T05:39:22.978Z,68.90
2018-02-21T05:40:22.963Z,70.50
2018-02-21T05:41:22.951Z,68.00
2018-02-21T05:42:22.943Z,69.20
2018-02-21T05:43:22.928Z,67.70
2018-02-21T05:44:22.916Z,66.70
2018-02-21T05:45:22.904Z,69.00
2018-02-21T05:46:22.892Z,70.40
2018-02-21T05:47:22.883Z,70.10
2018-02-21T05:48:22.871Z,68.00
2018-02-21T05:49:22.860Z,68.10
2018-02-21T05:50:22.847Z,70.70
2018-02-21T05:51:22.836Z,67.10
2018-02-21T05:52:22.824Z,72.70
2018-02-21T05:53:22.812Z,69.90
2018-02-21T05:54:22.800Z,71.60
2018-02-21T05:55:22.789Z,69.90
2018-02-21T05:56:22.777Z,71.60
2018-02-21T05:57:22.762Z,67.20
2018-02-21T05:58:22.749Z,71.30
2018-02-21T05:59:22.737Z,67.50
2018-02-21T06:00:22.724Z,70.00
2018-02-21T06:01:22.713Z,70.90
2018-02-21T06:02:22.701Z,71.80
2018-02-21T06:03:22.693Z,73.80
2018-02-21T06:04:22.678Z,72.60
2018-02-21T06:05:22.667Z,70.90
2018-02-21T06:06:22.656Z,73.00
2018-02-21T06:07:22.643Z,73.10
2018-02-21T06:08:22.626Z,73.60
2018-02-21T06:09:22.616Z,72.30
2018-02-21T06:10:22.604Z,73.60
2018-02-21T06:11:22.591Z,71.90
2018-02-21T06:12:22.582Z,72.40
2018-02-21T06:13:22.569Z,74.00
2018-02-21T06:14:22.555Z,74.60
2018-02-21T06:15:22.545Z,70.30
2018-02-21T06:16:22.536Z,71.50
2018-02-21T06:17:22.518Z,74.70
2018-02-21T06:18:22.506Z,75.40
2018-02-21T06:19:22.494Z,75.70
2018-02-21T06:20:22.478Z,74.00
2018-02-21T06:21:22.466Z,76.20
2018-02-21T06:22:22.453Z,78.40
2018-02-21T06:23:22.441Z,76.80
2018-02-21T06:24:22.429Z,74.50
2018-02-21T06:25:22.415Z,76.60
2018-02-21T06:26:22.405Z,76.30
2018-02-21T06:27:22.393Z,78.60
2018-02-21T06:28:22.381Z,78.50
2018-02-21T06:29:22.369Z,77.40
2018-02-21T06:30:22.356Z,73.90
2018-02-21T06:31:22.344Z,74.70
2018-02-21T06:32:22.331Z,78.70
2018-02-21T06:33:22.317Z,79.20
2018-02-21T06:34:22.306Z,75.50
2018-02-21T06:35:22.293Z,78.70
2018-02-21T06:36:22.281Z,78.00
2018-02-21T06:37:22.265Z,78.30
2018-02-21T06:38:22.252Z,75.90
2018-02-21T06:39:22.239Z,80.10
2018-02-21T06:40:22.227Z,73.10
2018-02-21T06:41:22.227Z,77.30
2018-02-21T06:42:22.205Z,77.00
2018-02-21T06:43:22.193Z,78.50
2018-02-21T06:44:22.180Z,77.50
2018-02-21T06:45:22.169Z,76.90
2018-02-21T06:46:22.155Z,78.50
2018-02-21T06:47:22.141Z,76.40
2018-02-21T06:48:22.128Z,78.30
2018-02-21T06:49:22.115Z,77.00
2018-02-21T06:50:22.104Z,77.40
2018-02-21T06:51:22.091Z,77.20
2018-02-21T06:52:22.075Z,79.00
2018-02-21T06:53:22.061Z,78.40
2018-02-21T06:54:22.050Z,76.90
2018-02-21T06:55:22.038Z,76.20
2018-02-21T06:56:22.024Z,77.20
2018-02-21T06:57:22.011Z,76.60
2018-02-21T06:58:21.998Z,78.40
2018-02-21T06:59:21.987Z,78.20
2018-02-21T07:00:21.976Z,75.60
2018-02-21T07:01:21.964Z,77.40
2018-02-21T07:02:21.950Z,76.00
2018-02-21T07:03:21.937Z,76.40
2018-02-21T07:04:21.925Z,79.60
2018-02-21T07:05:21.913Z,78.50
2018-02-21T07:06:21.901Z,75.50
2018-02-21T07:07:21.888Z,77.30
2018-02-21T07:08:21.872Z,79.40
2018-02-21T07:09:21.859Z,77.60
2018-02-21T07:10:21.848Z,76.60
2018-02-21T07:11:21.835Z,79.00
2018-02-21T07:12:21.822Z,81.20
2018-02-21T07:13:21.809Z,78.90
2018-02-21T07:14:21.797Z,79.90
2018-02-21T07:15:21.802Z,77.90
2018-02-21T07:16:21.775Z,81.90
2018-02-21T07:17:21.763Z,80.40
2018-02-21T07:18:21.750Z,79.40
2018-02-21T07:19:21.742Z,80.60
2018-02-21T07:20:21.726Z,75.90
2018-02-21T07:21:21.713Z,83.10
2018-02-21T07:22:21.701Z,79.80
2018-02-21T07:23:21.689Z,77.60
2018-02-21T07:24:21.673Z,80.30
2018-02-21T07:25:21.662Z,77.50
2018-02-21T07:26:21.648Z,80.30
2018-02-21T07:27:21.638Z,79.70
2018-02-21T07:28:21.624Z,76.50
2018-02-21T07:29:21.612Z,77.10
2018-02-21T07:30:21.606Z,75.60
2018-02-21T07:31:21.592Z,76.80
2018-02-21T07:32:21.580Z,76.70
2018-02-21T07:33:21.570Z,77.80
2018-02-21T07:34:21.560Z,76.60
2018-02-21T07:35:21.548Z,75.40
2018-02-21T07:36:21.537Z,74.20
2018-02-21T07:37:21.527Z,71.40
2018-02-21T07:38:21.515Z,73.10
2018-02-21T07:39:21.504Z,72.40
2018-02-21T07:40:21.492Z,73.50
2018-02-21T07:41:21.481Z,71.90
2018-02-21T07:42:21.471Z,76.20
2018-02-21T07:43:21.463Z,73.70
2018-02-21T07:44:21.452Z,73.30
2018-02-21T07:45:21.442Z,73.40
2018-02-21T07:46:21.433Z,77.00
2018-02-21T07:47:21.424Z,73.90
2018-02-21T07:48:21.418Z,74.60
2018-02-21T07:49:21.408Z,73.20
2018-02-21T07:50:21.401Z,72.80
2018-02-21T07:51:21.390Z,73.20
2018-02-21T07:52:21.385Z,75.90
2018-02-21T07:53:21.373Z,75.30
2018-02-21T07:54:21.365Z,74.60
2018-02-21T07:55:21.359Z,72.60
2018-02-21T07:56:21.347Z,77.00
2018-02-21T07:57:21.341Z,73.40
2018-02-21T07:58:21.333Z,73.60
2018-02-21T07:59:21.325Z,73.40
2018-02-21T08:00:21.318Z,73.50
2018-02-21T08:01:21.311Z,75.90
2018-02-21T08:02:21.303Z,73.50
2018-02-21T08:03:21.296Z,75.70
2018-02-21T08:04:21.292Z,76.70
2018-02-21T08:05:21.285Z,75.30
2018-02-21T08:06:21.280Z,77.90
2018-02-21T08:07:21.273Z,78.20
2018-02-21T08:08:21.265Z,74.60
2018-02-21T08:09:21.261Z,76.60
2018-02-21T08:10:21.254Z,76.40
2018-02-21T08:11:21.250Z,74.80
2018-02-21T08:12:21.241Z,78.30
2018-02-21T08:13:21.234Z,80.90
2018-02-21T08:14:21.230Z,82.40
2018-02-21T08:15:21.271Z,82.90
2018-02-21T08:16:21.221Z,81.20
2018-02-21T08:17:21.216Z,80.10
2018-02-21T08:18:21.212Z,83.70
2018-02-21T08:19:21.211Z,80.10
2018-02-21T08:20:21.201Z,75.70
2018-02-21T08:21:21.196Z,81.80
2018-02-21T08:22:21.193Z,79.70
2018-02-21T08:23:21.188Z,73.70
2018-02-21T08:24:21.183Z,76.90
2018-02-21T08:25:21.179Z,73.40
2018-02-21T08:26:21.175Z,81.30
2018-02-21T08:27:21.172Z,75.20
2018-02-21T08:28:21.211Z,79.20
2018-02-21T08:29:21.167Z,77.20
2018-02-21T08:30:21.163Z,74.60
2018-02-21T08:31:21.161Z,72.40
2018-02-21T08:32:21.156Z,72.70
2018-02-21T08:33:21.153Z,72.50
2018-02-21T08:34:21.152Z,74.00
2018-02-21T08:35:21.147Z,74.40
2018-02-21T08:36:21.141Z,73.70
2018-02-21T08:37:21.138Z,76.30
2018-02-21T08:38:21.137Z,71.50
2018-02-21T08:39:21.134Z,71.70
2018-02-21T08:40:21.129Z,71.40
2018-02-21T08:41:21.130Z,71.80
2018-02-21T08:42:21.126Z,74.00
2018-02-21T08:43:21.122Z,73.20
2018-02-21T08:44:21.122Z,72.30
2018-02-21T08:45:21.118Z,72.40
2018-02-21T08:46:21.116Z,72.70
2018-02-21T08:47:21.114Z,71.40
2018-02-21T08:48:21.116Z,71.30
2018-02-21T08:49:21.109Z,72.60
2018-02-21T08:50:21.108Z,76.30
2018-02-21T08:51:21.105Z,72.60
2018-02-21T08:52:21.099Z,73.70
2018-02-21T08:53:21.099Z,72.50
2018-02-21T08:54:21.095Z,74.30
2018-02-21T08:55:21.094Z,71.00
2018-02-21T08:56:21.091Z,74.00
2018-02-21T08:57:21.090Z,75.10
2018-02-21T08:58:21.088Z,75.00
2018-02-21T08:59:21.086Z,76.10
2018-02-21T09:00:21.087Z,73.10
2018-02-21T09:01:21.085Z,73.90
2018-02-21T09:02:21.083Z,76.30
2018-02-21T09:03:21.080Z,74.60
2018-02-21T09:04:21.078Z,74.60
2018-02-21T09:05:21.077Z,75.50
2018-02-21T09:06:21.074Z,74.70
2018-02-21T09:07:21.074Z,75.80
2018-02-21T09:08:21.068Z,75.10
2018-02-21T09:09:21.067Z,72.30
2018-02-21T09:10:21.066Z,74.60
2018-02-21T09:11:21.065Z,70.10
2018-02-21T09:12:21.063Z,71.80
2018-02-21T09:13:21.062Z,71.30
2018-02-21T09:14:21.104Z,73.10
2018-02-21T09:15:21.062Z,72.50
2018-02-21T09:16:21.063Z,72.00
2018-02-21T09:17:21.063Z,72.20
2018-02-21T09:18:21.065Z,75.30
2018-02-21T09:19:21.063Z,75.50
2018-02-21T09:20:21.060Z,79.10
2018-02-21T09:21:21.083Z,76.00
2018-02-21T09:22:21.061Z,76.60
2018-02-21T09:23:21.095Z,71.50
2018-02-21T09:24:21.066Z,78.80
2018-02-21T09:25:21.065Z,72.70
2018-02-21T09:26:21.067Z,79.50
2018-02-21T09:27:21.068Z,70.20
2018-02-21T09:28:21.068Z,71.30
2018-02-21T09:29:21.068Z,76.40
2018-02-21T09:30:21.070Z,74.60
2018-02-21T09:31:21.071Z,73.50
2018-02-21T09:32:21.069Z,75.10
2018-02-21T09:33:21.071Z,73.80
2018-02-21T09:34:21.072Z,73.20
2018-02-21T09:35:21.074Z,73.10
2018-02-21T09:36:21.079Z,73.30
2018-02-21T09:37:21.078Z,70.70
2018-02-21T09:38:21.079Z,71.10
2018-02-21T09:39:21.081Z,73.40
2018-02-21T09:40:21.085Z,67.30
2018-02-21T09:41:21.088Z,71.60
2018-02-21T09:42:21.090Z,69.10
2018-02-21T09:43:21.092Z,75.60
2018-02-21T09:44:21.094Z,71.90
2018-02-21T09:45:21.096Z,72.40
2018-02-21T09:46:21.099Z,71.50
2018-02-21T09:47:21.103Z,75.30
2018-02-21T09:48:21.113Z,71.00
2018-02-21T09:49:21.105Z,70.80
2018-02-21T09:50:21.108Z,69.40
2018-02-21T09:51:21.111Z,69.80
2018-02-21T09:52:21.112Z,71.60
2018-02-21T09:53:21.115Z,72.30
2018-02-21T09:54:21.119Z,70.10
2018-02-21T09:55:21.124Z,70.90
2018-02-21T09:56:21.127Z,66.90
2018-02-21T09:57:21.133Z,67.00
2018-02-21T09:58:21.137Z,63.90
2018-02-21T09:59:21.139Z,64.10
2018-02-21T10:00:21.143Z,63.80
2018-02-21T10:01:21.147Z,63.40
2018-02-21T10:02:21.150Z,60.70
2018-02-21T10:03:21.154Z,60.00
2018-02-21T10:04:21.155Z,61.80
2018-02-21T10:05:21.159Z,62.50
2018-02-21T10:06:21.164Z,62.10
2018-02-21T10:07:21.169Z,61.50
2018-02-21T10:08:21.172Z,62.60
2018-02-21T10:09:21.175Z,61.70
2018-02-21T10:10:21.180Z,61.30
2018-02-21T10:11:21.184Z,62.60
2018-02-21T10:12:21.191Z,60.70
2018-02-21T10:13:21.195Z,58.80
2018-02-21T10:14:21.199Z,58.10
2018-02-21T10:15:21.202Z,58.00
2018-02-21T10:16:21.206Z,59.50
2018-02-21T10:17:21.210Z,56.90
2018-02-21T10:18:21.216Z,59.00
2018-02-21T10:19:21.221Z,58.80
2018-02-21T10:20:21.241Z,60.30
2018-02-21T10:21:21.223Z,58.20
2018-02-21T10:22:21.231Z,56.60
2018-02-21T10:23:21.230Z,57.00
2018-02-21T10:24:21.236Z,56.10
2018-02-21T10:25:21.240Z,54.60
2018-02-21T10:26:21.263Z,57.60
2018-02-21T10:27:21.249Z,55.80
2018-02-21T10:28:21.249Z,55.20
2018-02-21T10:29:21.252Z,55.90
2018-02-21T10:30:21.256Z,58.20
2018-02-21T10:31:21.260Z,55.50
2018-02-21T10:32:21.264Z,53.20
2018-02-21T10:33:21.268Z,53.70
2018-02-21T10:34:21.273Z,53.50
2018-02-21T10:35:21.275Z,55.80
2018-02-21T10:36:21.287Z,55.50
2018-02-21T10:37:21.286Z,54.30
2018-02-21T10:38:21.290Z,52.50
2018-02-21T10:39:21.295Z,53.70
2018-02-21T10:40:21.299Z,54.90
2018-02-21T10:41:21.301Z,56.10
2018-02-21T10:42:21.304Z,54.20
2018-02-21T10:43:21.309Z,53.70
2018-02-21T10:44:21.311Z,52.80
2018-02-21T10:45:21.315Z,53.60
2018-02-21T10:46:21.318Z,52.70
2018-02-21T10:47:21.322Z,52.80
2018-02-21T10:48:21.326Z,52.10
2018-02-21T10:49:21.336Z,50.90
2018-02-21T10:50:21.335Z,50.70
2018-02-21T10:51:21.340Z,51.40
2018-02-21T10:52:21.345Z,50.30
2018-02-21T10:53:21.348Z,51.40
2018-02-21T10:54:21.353Z,50.20
2018-02-21T10:55:21.357Z,50.40
2018-02-21T10:56:21.361Z,49.50
2018-02-21T10:57:21.364Z,51.30
2018-02-21T10:58:21.368Z,50.10
2018-02-21T10:59:21.373Z,51.10
2018-02-21T11:00:21.374Z,50.20
2018-02-21T11:01:21.377Z,50.90
2018-02-21T11:02:21.381Z,51.30
2018-02-21T11:03:21.386Z,51.60
2018-02-21T11:04:21.388Z,50.20
2018-02-21T11:05:21.392Z,51.50
2018-02-21T11:06:21.396Z,52.30
2018-02-21T11:07:21.400Z,51.70
2018-02-21T11:08:21.406Z,51.80
2018-02-21T11:09:21.409Z,51.40
2018-02-21T11:10:21.413Z,51.90
2018-02-21T11:11:21.417Z,53.20
2018-02-21T11:12:21.421Z,51.20
2018-02-21T11:13:21.425Z,50.30
2018-02-21T11:14:21.429Z,52.60
2018-02-21T11:15:21.434Z,53.30
2018-02-21T11:16:21.436Z,51.60
2018-02-21T11:17:21.436Z,52.50
2018-02-21T11:18:21.441Z,52.40
2018-02-21T11:19:21.444Z,52.30
2018-02-21T11:20:21.453Z,51.30
2018-02-21T11:21:21.451Z,51.10
2018-02-21T11:22:21.456Z,52.30
2018-02-21T11:23:21.459Z,52.30
2018-02-21T11:24:21.465Z,52.20
2018-02-21T11:25:21.469Z,52.10
2018-02-21T11:26:21.471Z,51.50
2018-02-21T11:27:21.476Z,51.90
2018-02-21T11:28:21.475Z,52.60
2018-02-21T11:29:21.478Z,50.30
2018-02-21T11:30:21.482Z,51.50
2018-02-21T11:31:21.485Z,49.40
2018-02-21T11:32:21.492Z,48.70
2018-02-21T11:33:21.493Z,46.30
2018-02-21T11:34:21.496Z,46.80
2018-02-21T11:35:21.499Z,48.10
2018-02-21T11:36:21.501Z,50.60
2018-02-21T11:37:21.505Z,47.80
2018-02-21T11:38:21.507Z,50.60
2018-02-21T11:39:21.509Z,47.30
2018-02-21T11:40:21.513Z,48.80
2018-02-21T11:41:21.510Z,46.90
2018-02-21T11:42:21.518Z,49.70
2018-02-21T11:43:21.514Z,47.70
2018-02-21T11:44:21.515Z,48.50
2018-02-21T11:45:21.519Z,52.40
2018-02-21T11:46:21.519Z,49.40
2018-02-21T11:47:21.523Z,48.80
2018-02-21T11:48:21.524Z,46.60
2018-02-21T11:49:21.523Z,47.80
2018-02-21T11:50:21.523Z,48.80
2018-02-21T11:51:21.523Z,49.50
2018-02-21T11:52:21.522Z,48.80
2018-02-21T11:53:21.523Z,49.40
2018-02-21T11:54:21.520Z,46.30
2018-02-21T11:55:21.521Z,48.50
2018-02-21T11:56:21.515Z,46.50
2018-02-21T11:57:21.513Z,47.40
2018-02-21T11:58:21.516Z,44.90
2018-02-21T11:59:21.510Z,47.60
2018-02-21T12:00:21.506Z,46.50
2018-02-21T12:01:21.504Z,46.90
2018-02-21T12:02:21.501Z,46.70
2018-02-21T12:03:21.500Z,46.00
2018-02-21T12:04:21.497Z,46.30
2018-02-21T12:05:21.494Z,46.30
2018-02-21T12:06:21.492Z,46.20
2018-02-21T12:07:21.487Z,46.40
2018-02-21T12:08:21.482Z,47.60
2018-02-21T12:09:21.479Z,45.30
2018-02-21T12:10:21.491Z,46.10
2018-02-21T12:11:21.471Z,46.70
2018-02-21T12:12:21.463Z,46.70
2018-02-21T12:13:21.459Z,47.50
2018-02-21T12:14:21.455Z,48.20
2018-02-21T12:15:21.450Z,46.80
2018-02-21T12:16:21.447Z,46.00
2018-02-21T12:17:21.442Z,46.00
2018-02-21T12:18:21.435Z,46.50
2018-02-21T12:19:21.435Z,46.50
2018-02-21T12:20:21.426Z,45.90
2018-02-21T12:21:21.422Z,45.20
2018-02-21T12:22:21.417Z,44.90
2018-02-21T12:23:21.412Z,43.00
2018-02-21T12:24:21.405Z,43.40
2018-02-21T12:25:21.404Z,43.10
2018-02-21T12:26:21.395Z,42.70
2018-02-21T12:27:21.389Z,44.90
2018-02-21T12:28:21.381Z,43.00
2018-02-21T12:29:21.375Z,42.80
2018-02-21T12:30:21.370Z,42.30
2018-02-21T12:31:21.363Z,43.50
2018-02-21T12:32:21.360Z,42.50
2018-02-21T12:33:21.352Z,40.50
2018-02-21T12:34:21.348Z,43.40
2018-02-21T12:35:21.341Z,42.30
2018-02-21T12:36:21.334Z,39.10
2018-02-21T12:37:21.325Z,41.80
2018-02-21T12:38:21.321Z,39.70
2018-02-21T12:39:21.314Z,40.40
2018-02-21T12:40:21.307Z,40.40
2018-02-21T12:41:21.300Z,40.20
2018-02-21T12:42:21.294Z,39.00
2018-02-21T12:43:21.288Z,41.00
2018-02-21T12:44:21.283Z,39.60
2018-02-21T12:45:21.280Z,39.20
2018-02-21T12:46:21.271Z,42.60
2018-02-21T12:47:21.266Z,40.70
2018-02-21T12:48:21.258Z,42.30
2018-02-21T12:49:21.251Z,42.80
2018-02-21T12:50:21.250Z,40.10
2018-02-21T12:51:21.239Z,40.50
2018-02-21T12:52:21.228Z,40.10